createdAt,value
2022-08-22T00:01:07.113Z,20.07
2022-08-22T00:02:44.478Z,20.69
2022-08-22T00:02:45.810Z,20.69
2022-08-22T00:02:56.792Z,21.23
2022-08-22T00:04:16.589Z,20.37
2022-08-22T00:06:49.882Z,20.17
2022-08-22T00:09:29.042Z,19.85
2022-08-22T00:12:29.348Z,19.56
2022-08-22T00:15:06.814Z,20.09
2022-08-22T00:17:36.004Z,20.36
2022-08-22T00:20:03.281Z,20.21
2022-08-22T00:22:36.789Z,19.95
2022-08-22T00:25:33.218Z,19.67
2022-08-22T00:28:11.457Z,19.96
2022-08-22T00:30:48.852Z,20.12
2022-08-22T00:33:42.392Z,19.97
2022-08-22T00:36:23.771Z,19.63
2022-08-22T00:39:37.469Z,19.34
2022-08-22T00:42:33.056Z,19.85
2022-08-22T00:45:54.869Z,20.01
2022-08-22T00:48:43.212Z,19.73
2022-08-22T00:51:33.598Z,19.43
2022-08-22T00:54:17.508Z,19.19
2022-08-22T00:57:04.359Z,19.73
2022-08-22T00:59:38.266Z,20.05
2022-08-22T01:02:44.669Z,19.89
2022-08-22T01:05:41.171Z,19.49
2022-08-22T01:08:17.746Z,19.18
2022-08-22T01:10:55.947Z,19.58
2022-08-22T01:13:29.291Z,19.71
2022-08-22T01:16:24.861Z,19.59
2022-08-22T01:19:30.514Z,19.16
2022-08-22T01:22:25.934Z,18.82
2022-08-22T01:25:22.607Z,19.08
2022-08-22T01:28:12.453Z,19.05
2022-08-22T01:31:23.017Z,18.66
2022-08-22T01:34:26.676Z,18.35
2022-08-22T01:37:22.775Z,18.61
2022-08-22T01:40:06.874Z,18.85
2022-08-22T01:42:58.935Z,18.64
2022-08-22T01:45:52.131Z,18.51
2022-08-22T01:48:39.728Z,18.43
2022-08-22T01:51:17.037Z,19.05
2022-08-22T01:53:58.741Z,19.39
2022-08-22T01:56:25.848Z,19.29
2022-08-22T01:59:10.905Z,19.03
2022-08-22T02:02:16.189Z,18.67
2022-08-22T02:05:12.297Z,18.45
2022-08-22T02:07:49.682Z,19.07
2022-08-22T02:10:54.108Z,19.28
2022-08-22T02:13:29.863Z,19.05
2022-08-22T02:16:37.392Z,18.65
2022-08-22T02:19:13.753Z,18.44
2022-08-22T02:21:44.149Z,18.88
2022-08-22T02:24:23.076Z,19.10
2022-08-22T02:27:31.307Z,18.97
2022-08-22T02:30:45.767Z,18.66
2022-08-22T02:33:21.290Z,18.45
2022-08-22T02:35:55.196Z,19.04
2022-08-22T02:38:43.830Z,19.34
2022-08-22T02:41:34.479Z,19.16
2022-08-22T02:44:13.102Z,18.82
2022-08-22T02:47:08.586Z,18.57
2022-08-22T02:50:01.668Z,18.98
2022-08-22T02:52:39.955Z,19.11
2022-08-22T02:55:19.526Z,18.97
2022-08-22T02:58:02.415Z,18.58
2022-08-22T03:00:41.101Z,18.16
2022-08-22T03:03:21.106Z,18.60
2022-08-22T03:06:02.776Z,18.95
2022-08-22T03:08:35.545Z,18.84
2022-08-22T03:11:11.311Z,18.58
2022-08-22T03:13:55.869Z,18.36
2022-08-22T03:16:29.261Z,18.73
2022-08-22T03:19:14.956Z,18.99
2022-08-22T03:22:08.930Z,18.83
2022-08-22T03:24:56.413Z,18.32
2022-08-22T03:27:32.119Z,18.06
2022-08-22T03:30:21.538Z,18.45
2022-08-22T03:32:59.095Z,18.56
2022-08-22T03:35:41.888Z,18.60
2022-08-22T03:38:32.997Z,18.33
2022-08-22T03:41:12.505Z,18.06
2022-08-22T03:44:01.189Z,18.23
2022-08-22T03:46:50.381Z,18.55
2022-08-22T03:49:32.869Z,18.46
2022-08-22T03:52:13.362Z,18.35
2022-08-22T03:54:55.056Z,18.35
2022-08-22T03:58:19.148Z,18.96
2022-08-22T04:01:14.089Z,19.38
2022-08-22T04:04:13.821Z,19.38
2022-08-22T04:06:49.175Z,19.17
2022-08-22T04:09:30.650Z,18.83
2022-08-22T04:12:10.086Z,19.36
2022-08-22T04:15:00.684Z,19.75
2022-08-22T04:17:36.640Z,19.71
2022-08-22T04:20:09.242Z,19.69
2022-08-22T04:22:46.404Z,19.65
2022-08-22T04:25:36.195Z,20.10
2022-08-22T04:28:14.975Z,20.53
2022-08-22T04:30:47.213Z,20.70
2022-08-22T04:33:38.083Z,20.62
2022-08-22T04:36:14.877Z,20.32
2022-08-22T04:38:56.140Z,20.16
2022-08-22T04:41:37.386Z,20.79
2022-08-22T04:44:07.060Z,21.13
2022-08-22T04:47:11.265Z,21.08
2022-08-22T04:49:45.465Z,20.78
2022-08-22T04:52:21.455Z,20.63
2022-08-22T04:55:17.788Z,20.65
2022-08-22T04:58:22.800Z,21.52
2022-08-22T05:01:18.224Z,22.06
2022-08-22T05:03:50.885Z,22.05
2022-08-22T05:06:19.320Z,21.76
2022-08-22T05:08:48.444Z,21.68
2022-08-22T05:11:22.225Z,21.48
2022-08-22T05:14:02.021Z,21.49
2022-08-22T05:16:32.817Z,22.23
2022-08-22T05:19:28.378Z,22.74
2022-08-22T05:21:58.777Z,22.81
2022-08-22T05:24:42.182Z,22.71
2022-08-22T05:27:10.905Z,22.58
2022-08-22T05:29:39.595Z,22.32
2022-08-22T05:32:09.509Z,22.36
2022-08-22T05:34:38.274Z,22.41
2022-08-22T05:37:33.630Z,22.73
2022-08-22T05:40:00.706Z,23.28
2022-08-22T05:42:31.227Z,23.31
2022-08-22T05:44:59.904Z,22.96
2022-08-22T05:47:38.007Z,22.93
2022-08-22T05:50:17.664Z,22.52
2022-08-22T05:52:55.829Z,22.41
2022-08-22T05:55:25.845Z,22.55
2022-08-22T05:58:00.784Z,22.85
2022-08-22T06:00:27.976Z,23.02
2022-08-22T06:03:01.531Z,22.72
2022-08-22T06:05:30.313Z,22.54
2022-08-22T06:08:36.191Z,22.49
2022-08-22T06:11:07.652Z,22.54
2022-08-22T06:13:41.278Z,23.10
2022-08-22T06:16:16.672Z,23.26
2022-08-22T06:18:44.278Z,23.18
2022-08-22T06:21:22.198Z,22.97
2022-08-22T06:23:56.173Z,22.68
2022-08-22T06:26:24.731Z,22.60
2022-08-22T06:28:55.308Z,23.01
2022-08-22T06:31:31.864Z,23.09
2022-08-22T06:34:22.535Z,23.37
2022-08-22T06:36:50.500Z,23.42
2022-08-22T06:39:24.833Z,23.35
2022-08-22T06:41:53.404Z,22.97
2022-08-22T06:44:23.218Z,23.24
2022-08-22T06:46:52.043Z,23.69
2022-08-22T06:49:18.972Z,23.58
2022-08-22T06:51:46.224Z,23.69
2022-08-22T06:54:23.949Z,23.63
2022-08-22T06:56:51.352Z,23.72
2022-08-22T06:59:23.253Z,23.75
2022-08-22T07:01:54.819Z,24.34
2022-08-22T07:04:26.228Z,24.68
2022-08-22T07:06:54.664Z,24.79
2022-08-22T07:09:23.591Z,24.63
2022-08-22T07:11:50.844Z,24.49
2022-08-22T07:14:39.011Z,24.27
2022-08-22T07:17:08.510Z,24.26
2022-08-22T07:19:44.855Z,24.31
2022-08-22T07:22:20.595Z,24.98
2022-08-22T07:24:50.565Z,25.27
2022-08-22T07:27:48.805Z,25.50
2022-08-22T07:30:17.711Z,25.63
2022-08-22T07:33:23.634Z,25.62
2022-08-22T07:35:53.519Z,25.50
2022-08-22T07:38:43.272Z,25.52
2022-08-22T07:41:19.718Z,25.72
2022-08-22T07:44:11.439Z,25.71
2022-08-22T07:47:16.860Z,25.62
2022-08-22T07:49:58.375Z,25.65
2022-08-22T07:52:25.446Z,25.70
2022-08-22T07:54:55.707Z,25.75
2022-08-22T07:57:22.696Z,25.95
2022-08-22T07:59:55.072Z,26.13
2022-08-22T08:02:22.239Z,26.25
2022-08-22T08:04:50.496Z,26.42
2022-08-22T08:07:21.498Z,26.66
2022-08-22T08:09:54.545Z,26.75
2022-08-22T08:12:29.870Z,26.57
2022-08-22T08:14:56.776Z,26.66
2022-08-22T08:17:32.034Z,26.79
2022-08-22T08:20:03.638Z,26.99
2022-08-22T08:22:30.748Z,26.93
2022-08-22T08:24:58.217Z,27.36
2022-08-22T08:27:50.517Z,27.41
2022-08-22T08:30:33.902Z,27.52
2022-08-22T08:33:24.941Z,27.74
2022-08-22T08:36:17.764Z,27.94
2022-08-22T08:38:49.088Z,28.14
2022-08-22T08:41:45.935Z,28.27
2022-08-22T08:44:35.512Z,28.58
2022-08-22T08:47:24.881Z,28.81
2022-08-22T08:50:01.249Z,29.01
2022-08-22T08:53:00.864Z,29.28
2022-08-22T08:55:37.536Z,29.37
2022-08-22T08:58:17.700Z,29.53
2022-08-22T09:00:59.480Z,29.29
2022-08-22T09:03:51.305Z,28.75
2022-08-22T09:06:54.795Z,28.56
2022-08-22T09:09:41.627Z,28.79
2022-08-22T09:12:28.439Z,28.52
2022-08-22T09:15:14.592Z,29.03
2022-08-22T09:18:14.139Z,29.14
2022-08-22T09:21:03.741Z,28.55
2022-08-22T09:23:55.441Z,28.86
2022-08-22T09:26:27.959Z,29.09
2022-08-22T09:28:58.974Z,28.51
2022-08-22T09:34:29.314Z,28.81
2022-08-22T09:37:16.016Z,28.71
2022-08-22T09:40:05.833Z,28.94
2022-08-22T09:43:02.485Z,28.88
2022-08-22T09:45:52.205Z,28.62
2022-08-22T09:48:29.193Z,28.95
2022-08-22T09:51:33.359Z,29.01
2022-08-22T09:54:19.098Z,29.38
2022-08-22T09:57:05.297Z,30.04
2022-08-22T10:00:10.230Z,30.61
2022-08-22T10:03:02.649Z,31.30
2022-08-22T10:05:43.892Z,31.51
2022-08-22T10:08:30.508Z,32.14
2022-08-22T10:11:21.471Z,31.97
2022-08-22T10:14:02.506Z,32.53
2022-08-22T10:16:45.057Z,32.11
2022-08-22T10:19:31.443Z,31.96
2022-08-22T10:22:31.031Z,32.06
2022-08-22T10:25:49.517Z,30.94
2022-08-22T10:28:19.543Z,30.76
2022-08-22T10:31:17.408Z,29.93
2022-08-22T10:33:49.063Z,29.97
2022-08-22T10:36:22.955Z,30.26
2022-08-22T10:38:55.341Z,30.16
2022-08-22T10:41:32.323Z,30.23
2022-08-22T10:44:05.035Z,30.25
2022-08-22T10:46:42.217Z,30.53
2022-08-22T10:49:22.493Z,30.85
2022-08-22T10:52:15.852Z,30.94
2022-08-22T10:54:48.184Z,30.69
2022-08-22T10:57:20.760Z,30.46
2022-08-22T11:00:04.910Z,30.67
2022-08-22T11:02:36.360Z,30.82
2022-08-22T11:05:22.659Z,30.66
2022-08-22T11:08:15.922Z,31.58
2022-08-22T11:11:02.219Z,32.05
2022-08-22T11:13:59.577Z,32.28
2022-08-22T11:16:42.801Z,32.34
2022-08-22T11:19:15.519Z,32.64
2022-08-22T11:21:56.360Z,32.44
2022-08-22T11:24:34.800Z,32.78
2022-08-22T11:27:07.398Z,32.80
2022-08-22T11:29:48.130Z,32.90
2022-08-22T11:32:19.977Z,31.36
2022-08-22T11:35:23.712Z,30.80
2022-08-22T11:37:56.800Z,30.67
2022-08-22T11:40:43.614Z,31.14
2022-08-22T11:43:37.823Z,30.91
2022-08-22T11:46:23.872Z,31.35
2022-08-22T11:49:08.759Z,31.23
2022-08-22T11:52:10.517Z,31.18
2022-08-22T11:54:57.936Z,30.55
2022-08-22T11:57:33.180Z,30.07
2022-08-22T12:00:20.693Z,30.93
2022-08-22T12:03:16.229Z,31.41
2022-08-22T12:06:10.917Z,31.85
2022-08-22T12:09:02.117Z,31.75
2022-08-22T12:11:59.083Z,31.70
2022-08-22T12:14:36.139Z,31.23
2022-08-22T12:17:55.973Z,30.83
2022-08-22T12:20:35.163Z,30.42
2022-08-22T12:23:48.547Z,30.25
2022-08-22T12:26:51.033Z,30.44
2022-08-22T12:29:18.555Z,30.68
2022-08-22T12:31:56.004Z,30.36
2022-08-22T12:35:00.461Z,30.46
2022-08-22T12:37:52.664Z,30.02
2022-08-22T12:40:43.608Z,29.83
2022-08-22T12:43:42.529Z,29.82
2022-08-22T12:46:48.877Z,30.24
2022-08-22T12:49:52.343Z,30.50
2022-08-22T12:52:37.433Z,30.43
2022-08-22T12:55:11.031Z,30.27
2022-08-22T12:57:44.218Z,30.11
2022-08-22T13:00:22.861Z,30.44
2022-08-22T13:02:53.906Z,30.65
2022-08-22T13:05:24.720Z,30.49
2022-08-22T13:07:55.523Z,30.49
2022-08-22T13:10:41.036Z,30.49
2022-08-22T13:13:12.367Z,30.46
2022-08-22T13:15:53.526Z,30.16
2022-08-22T13:18:29.686Z,30.23
2022-08-22T13:20:59.986Z,29.91
2022-08-22T13:23:46.686Z,29.95
2022-08-22T13:26:32.821Z,30.51
2022-08-22T13:29:27.559Z,30.58
2022-08-22T13:31:59.818Z,30.37
2022-08-22T13:34:39.595Z,30.03
2022-08-22T13:37:10.930Z,30.25
2022-08-22T13:39:41.181Z,30.46
2022-08-22T13:42:14.616Z,30.68
2022-08-22T13:44:55.530Z,30.74
2022-08-22T13:47:25.261Z,30.62
2022-08-22T13:50:12.740Z,30.79
2022-08-22T13:53:02.735Z,30.90
2022-08-22T13:55:42.962Z,30.91
2022-08-22T13:58:25.222Z,31.00
2022-08-22T14:01:25.490Z,30.93
2022-08-22T14:04:19.993Z,30.87
2022-08-22T14:07:04.635Z,30.86
2022-08-22T14:09:54.256Z,30.66
2022-08-22T14:12:25.935Z,30.61
2022-08-22T14:14:56.963Z,30.63
2022-08-22T14:17:32.271Z,30.53
2022-08-22T14:20:07.950Z,30.59
2022-08-22T14:22:39.789Z,30.46
2022-08-22T14:25:15.957Z,30.55
2022-08-22T14:27:55.742Z,30.63
2022-08-22T14:30:27.394Z,30.73
2022-08-22T14:33:59.529Z,30.72
2022-08-22T14:36:34.671Z,30.64
2022-08-22T14:39:16.765Z,30.42
2022-08-22T14:41:52.373Z,30.43
2022-08-22T14:44:32.978Z,30.48
2022-08-22T14:47:03.847Z,30.50
2022-08-22T14:50:02.098Z,30.50
2022-08-22T14:52:42.867Z,30.50
2022-08-22T14:55:09.815Z,30.55
2022-08-22T14:57:41.595Z,30.51
2022-08-22T15:00:12.714Z,30.29
2022-08-22T15:02:40.374Z,30.22
2022-08-22T15:05:21.181Z,30.20
2022-08-22T15:07:55.843Z,30.18
2022-08-22T15:10:26.631Z,30.12
2022-08-22T15:13:00.233Z,30.17
2022-08-22T15:15:29.118Z,30.20
2022-08-22T15:17:56.580Z,30.14
2022-08-22T15:20:28.075Z,30.13
2022-08-22T15:23:00.696Z,30.12
2022-08-22T15:25:31.327Z,30.01
2022-08-22T15:28:05.556Z,29.96
2022-08-22T15:30:37.494Z,29.94
2022-08-22T15:33:12.294Z,29.81
2022-08-22T15:35:39.372Z,29.78
2022-08-22T15:38:36.383Z,29.70
2022-08-22T15:41:22.194Z,29.57
2022-08-22T15:43:50.729Z,29.51
2022-08-22T15:46:20.806Z,29.52
2022-08-22T15:48:56.927Z,29.45
2022-08-22T15:51:45.959Z,29.31
2022-08-22T15:54:24.747Z,29.22
2022-08-22T15:56:53.547Z,29.09
2022-08-22T15:59:54.138Z,29.00
2022-08-22T16:02:29.523Z,28.89
2022-08-22T16:05:10.015Z,28.79
2022-08-22T16:07:59.066Z,28.70
2022-08-22T16:10:26.216Z,28.47
2022-08-22T16:13:15.268Z,28.40
2022-08-22T16:15:52.691Z,28.33
2022-08-22T16:18:42.947Z,28.26
2022-08-22T16:21:22.537Z,28.19
2022-08-22T16:23:50.047Z,28.04
2022-08-22T16:26:36.054Z,27.97
2022-08-22T16:29:02.986Z,27.92
2022-08-22T16:31:33.668Z,27.80
2022-08-22T16:34:19.913Z,27.67
2022-08-22T16:37:08.481Z,27.55
2022-08-22T16:40:03.021Z,27.42
2022-08-22T16:42:39.060Z,27.32
2022-08-22T16:45:15.106Z,27.19
2022-08-22T16:47:54.523Z,27.07
2022-08-22T16:50:36.937Z,26.91
2022-08-22T16:53:03.970Z,26.77
2022-08-22T16:55:35.648Z,26.67
2022-08-22T16:58:18.542Z,26.56
2022-08-22T17:01:05.697Z,26.45
2022-08-22T17:03:36.035Z,26.30
2022-08-22T17:06:20.142Z,26.14
2022-08-22T17:09:16.063Z,26.01
2022-08-22T17:12:11.986Z,25.84
2022-08-22T17:14:57.872Z,25.67
2022-08-22T17:17:41.207Z,25.54
2022-08-22T17:20:28.039Z,25.41
2022-08-22T17:23:28.653Z,25.26
2022-08-22T17:26:12.915Z,25.14
2022-08-22T17:29:01.574Z,25.03
2022-08-22T17:31:58.935Z,24.90
2022-08-22T17:35:55.573Z,24.74
2022-08-22T17:38:27.420Z,24.55
2022-08-22T17:41:32.179Z,24.45
2022-08-22T17:44:20.905Z,24.32
2022-08-22T17:46:57.485Z,24.20
2022-08-22T17:49:29.758Z,24.15
2022-08-22T17:52:30.296Z,24.64
2022-08-22T17:55:13.221Z,25.14
2022-08-22T17:57:49.241Z,25.07
2022-08-22T18:00:26.347Z,24.90
2022-08-22T18:03:02.102Z,24.69
2022-08-22T18:05:35.656Z,24.47
2022-08-22T18:08:08.291Z,24.25
2022-08-22T18:10:47.874Z,24.06
2022-08-22T18:13:29.095Z,23.90
2022-08-22T18:16:11.345Z,23.72
2022-08-22T18:18:41.229Z,23.57
2022-08-22T18:21:28.262Z,23.44
2022-08-22T18:24:01.018Z,23.31
2022-08-22T18:26:38.401Z,23.19
2022-08-22T18:29:17.902Z,23.68
2022-08-22T18:31:49.700Z,24.16
2022-08-22T18:34:32.328Z,24.08
2022-08-22T18:37:12.576Z,23.98
2022-08-22T18:39:48.669Z,23.79
2022-08-22T18:42:48.245Z,23.57
2022-08-22T18:45:20.451Z,23.33
2022-08-22T18:47:54.535Z,23.12
2022-08-22T18:50:36.156Z,22.90
2022-08-22T18:53:04.251Z,22.74
2022-08-22T18:55:58.669Z,22.66
2022-08-22T18:58:58.899Z,23.14
2022-08-22T19:02:00.330Z,23.46
2022-08-22T19:05:02.012Z,23.33
2022-08-22T19:07:51.392Z,23.07
2022-08-22T19:10:28.670Z,22.86
2022-08-22T19:13:24.184Z,22.66
2022-08-22T19:15:57.711Z,22.42
2022-08-22T19:18:40.304Z,22.25
2022-08-22T19:21:55.472Z,22.12
2022-08-22T19:24:25.486Z,22.61
2022-08-22T19:27:18.702Z,22.73
2022-08-22T19:29:46.209Z,22.62
2022-08-22T19:32:59.464Z,22.44
2022-08-22T19:35:36.525Z,22.17
2022-08-22T19:38:06.329Z,21.93
2022-08-22T19:40:46.180Z,21.75
2022-08-22T19:43:36.939Z,21.64
2022-08-22T19:46:09.301Z,22.22
2022-08-22T19:48:50.484Z,22.63
2022-08-22T19:51:20.760Z,22.61
2022-08-22T19:54:16.221Z,22.31
2022-08-22T19:56:57.164Z,21.81
2022-08-22T19:59:39.553Z,21.64
2022-08-22T20:02:35.509Z,21.39
2022-08-22T20:05:12.824Z,21.21
2022-08-22T20:07:58.780Z,21.05
2022-08-22T20:10:31.982Z,21.01
2022-08-22T20:13:18.758Z,21.55
2022-08-22T20:16:01.296Z,21.85
2022-08-22T20:19:05.938Z,21.78
2022-08-22T20:21:40.322Z,21.58
2022-08-22T20:24:09.444Z,21.43
2022-08-22T20:26:51.953Z,21.26
2022-08-22T20:29:35.322Z,21.05
2022-08-22T20:32:03.352Z,20.87
2022-08-22T20:34:32.519Z,20.74
2022-08-22T20:37:25.347Z,20.59
2022-08-22T20:39:58.568Z,20.45
2022-08-22T20:42:26.547Z,20.38
2022-08-22T20:44:54.123Z,20.90
2022-08-22T20:47:24.146Z,21.43
2022-08-22T20:49:54.043Z,21.49
2022-08-22T20:52:28.482Z,21.33
2022-08-22T20:55:19.776Z,21.12
2022-08-22T20:57:55.824Z,20.91
2022-08-22T21:00:25.233Z,20.66
2022-08-22T21:03:09.453Z,20.41
2022-08-22T21:05:41.466Z,20.24
2022-08-22T21:08:09.840Z,20.10
2022-08-22T21:10:56.463Z,20.01
2022-08-22T21:13:34.486Z,20.45
2022-08-22T21:16:22.980Z,20.78
2022-08-22T21:18:51.886Z,20.75
2022-08-22T21:21:20.046Z,20.52
2022-08-22T21:23:49.249Z,20.23
2022-08-22T21:26:20.709Z,20.05
2022-08-22T21:28:57.064Z,19.92
2022-08-22T21:31:26.112Z,19.79
2022-08-22T21:33:54.157Z,19.67
2022-08-22T21:36:23.001Z,19.59
2022-08-22T21:39:04.079Z,20.06
2022-08-22T21:41:39.529Z,20.54
2022-08-22T21:44:33.203Z,20.52
2022-08-22T21:47:30.729Z,20.32
2022-08-22T21:50:06.928Z,20.08
2022-08-22T21:52:39.095Z,19.86
2022-08-22T21:55:22.015Z,19.66
2022-08-22T21:58:05.662Z,19.52
2022-08-22T22:01:03.355Z,19.42
2022-08-22T22:03:36.301Z,20.05
2022-08-22T22:06:05.510Z,20.48
2022-08-22T22:08:33.183Z,20.47
2022-08-22T22:11:02.978Z,20.29
2022-08-22T22:13:33.327Z,20.06
2022-08-22T22:16:00.451Z,19.83
2022-08-22T22:18:31.681Z,19.60
2022-08-22T22:20:59.201Z,19.38
2022-08-22T22:23:26.709Z,19.13
2022-08-22T22:25:55.094Z,19.43
2022-08-22T22:28:23.265Z,19.85
2022-08-22T22:30:51.580Z,19.81
2022-08-22T22:33:24.762Z,19.56
2022-08-22T22:35:52.827Z,19.33
2022-08-22T22:38:23.892Z,19.10
2022-08-22T22:40:52.305Z,18.89
2022-08-22T22:43:19.303Z,18.68
2022-08-22T22:45:46.419Z,18.97
2022-08-22T22:48:18.220Z,19.37
2022-08-22T22:50:52.674Z,19.36
2022-08-22T22:53:21.388Z,19.14
2022-08-22T22:56:01.027Z,18.82
2022-08-22T22:58:29.101Z,18.48
2022-08-22T23:00:57.665Z,18.18
2022-08-22T23:03:26.890Z,17.98
2022-08-22T23:05:53.929Z,18.39
2022-08-22T23:08:20.876Z,18.77
2022-08-22T23:10:48.131Z,18.77
2022-08-22T23:13:15.130Z,18.60
2022-08-22T23:15:42.222Z,18.46
2022-08-22T23:18:09.510Z,18.29
2022-08-22T23:20:36.628Z,18.17
2022-08-22T23:23:03.977Z,18.04
2022-08-22T23:25:31.138Z,18.41
2022-08-22T23:27:58.286Z,18.91
2022-08-22T23:30:25.427Z,19.07
2022-08-22T23:32:52.814Z,18.92
2022-08-22T23:35:20.348Z,18.70
2022-08-22T23:37:47.363Z,18.48
2022-08-22T23:40:14.472Z,18.22
2022-08-22T23:42:42.432Z,18.00
2022-08-22T23:45:09.964Z,18.27
2022-08-22T23:47:37.010Z,18.43
2022-08-22T23:50:06.287Z,18.16
2022-08-22T23:52:33.974Z,17.95
2022-08-22T23:55:01.132Z,17.74
2022-08-22T23:57:29.441Z,17.66
2022-08-22T23:59:57.851Z,17.66
